sensor_id;sensor_type;location;lat;lon;timestamp;temperature;humidity
52725;DHT22;38621;52.830;6.914;2024-02-26T00:02:03;3.00;99.90
52725;DHT22;38621;52.830;6.914;2024-02-26T00:04:28;3.10;99.90
52725;DHT22;38621;52.830;6.914;2024-02-26T00:06:54;3.30;99.90
52725;DHT22;38621;52.830;6.914;2024-02-26T00:09:21;3.10;99.90
52725;DHT22;38621;52.830;6.914;2024-02-26T00:11:47;3.10;99.90
52725;DHT22;38621;52.830;6.914;2024-02-26T00:14:13;3.50;99.90
52725;DHT22;38621;52.830;6.914;2024-02-26T00:16:42;3.30;99.90
52725;DHT22;38621;52.830;6.914;2024-02-26T00:19:08;3.10;99.90
52725;DHT22;38621;52.830;6.914;2024-02-26T00:21:33;3.10;99.90
52725;DHT22;38621;52.830;6.914;2024-02-26T00:23:59;3.00;99.90
52725;DHT22;38621;52.830;6.914;2024-02-26T00:26:25;3.00;99.90
52725;DHT22;38621;52.830;6.914;2024-02-26T00:28:51;2.90;99.90
52725;DHT22;38621;52.830;6.914;2024-02-26T00:31:16;2.90;99.90
52725;DHT22;38621;52.830;6.914;2024-02-26T00:33:42;2.80;99.90
52725;DHT22;38621;52.830;6.914;2024-02-26T00:36:08;2.80;99.90
52725;DHT22;38621;52.830;6.914;2024-02-26T00:38:35;2.80;99.90
52725;DHT22;38621;52.830;6.914;2024-02-26T00:41:01;2.80;99.90
52725;DHT22;38621;52.830;6.914;2024-02-26T00:43:27;2.80;99.90
52725;DHT22;38621;52.830;6.914;2024-02-26T00:45:52;2.70;99.90
52725;DHT22;38621;52.830;6.914;2024-02-26T00:48:18;2.70;99.90
52725;DHT22;38621;52.830;6.914;2024-02-26T00:50:43;2.90;99.90
52725;DHT22;38621;52.830;6.914;2024-02-26T00:53:09;3.10;99.90
52725;DHT22;38621;52.830;6.914;2024-02-26T00:55:35;2.80;99.90
52725;DHT22;38621;52.830;6.914;2024-02-26T00:58:00;2.80;99.90
52725;DHT22;38621;52.830;6.914;2024-02-26T01:00:26;2.80;99.90
52725;DHT22;38621;52.830;6.914;2024-02-26T01:02:52;3.00;99.90
52725;DHT22;38621;52.830;6.914;2024-02-26T01:05:17;2.80;99.90
52725;DHT22;38621;52.830;6.914;2024-02-26T01:07:43;2.80;99.90
52725;DHT22;38621;52.830;6.914;2024-02-26T01:10:09;2.80;99.90
52725;DHT22;38621;52.830;6.914;2024-02-26T01:12:35;2.80;99.90
52725;DHT22;38621;52.830;6.914;2024-02-26T01:15:04;2.80;99.90
52725;DHT22;38621;52.830;6.914;2024-02-26T01:17:30;2.80;99.90
52725;DHT22;38621;52.830;6.914;2024-02-26T01:19:56;2.80;99.90
52725;DHT22;38621;52.830;6.914;2024-02-26T01:22:22;2.80;99.90
52725;DHT22;38621;52.830;6.914;2024-02-26T01:24:48;2.80;99.90
52725;DHT22;38621;52.830;6.914;2024-02-26T01:27:13;2.90;99.90
52725;DHT22;38621;52.830;6.914;2024-02-26T01:29:42;2.70;99.90
52725;DHT22;38621;52.830;6.914;2024-02-26T01:32:08;2.70;99.90
52725;DHT22;38621;52.830;6.914;2024-02-26T01:34:34;2.70;99.90
52725;DHT22;38621;52.830;6.914;2024-02-26T01:37:00;2.70;99.90
52725;DHT22;38621;52.830;6.914;2024-02-26T01:39:26;2.70;99.90
52725;DHT22;38621;52.830;6.914;2024-02-26T01:41:54;3.00;99.90
52725;DHT22;38621;52.830;6.914;2024-02-26T01:44:20;2.70;99.90
52725;DHT22;38621;52.830;6.914;2024-02-26T01:46:47;2.60;99.90
52725;DHT22;38621;52.830;6.914;2024-02-26T01:49:13;2.90;99.90
52725;DHT22;38621;52.830;6.914;2024-02-26T01:51:41;2.70;99.90
52725;DHT22;38621;52.830;6.914;2024-02-26T01:54:08;3.10;99.90
52725;DHT22;38621;52.830;6.914;2024-02-26T01:56:35;2.60;99.90
52725;DHT22;38621;52.830;6.914;2024-02-26T01:59:02;2.70;99.90
52725;DHT22;38621;52.830;6.914;2024-02-26T02:01:32;2.70;99.90
52725;DHT22;38621;52.830;6.914;2024-02-26T02:03:59;2.70;99.90
52725;DHT22;38621;52.830;6.914;2024-02-26T02:06:26;2.70;99.90
52725;DHT22;38621;52.830;6.914;2024-02-26T02:08:54;2.70;99.90
52725;DHT22;38621;52.830;6.914;2024-02-26T02:11:20;2.70;99.90
52725;DHT22;38621;52.830;6.914;2024-02-26T02:13:46;2.70;99.90
52725;DHT22;38621;52.830;6.914;2024-02-26T02:16:12;2.60;99.90
52725;DHT22;38621;52.830;6.914;2024-02-26T02:18:38;2.60;99.90
52725;DHT22;38621;52.830;6.914;2024-02-26T02:21:04;2.60;99.90
52725;DHT22;38621;52.830;6.914;2024-02-26T02:23:29;2.70;99.90
52725;DHT22;38621;52.830;6.914;2024-02-26T02:25:57;2.60;99.90
52725;DHT22;38621;52.830;6.914;2024-02-26T02:28:24;2.80;99.90
52725;DHT22;38621;52.830;6.914;2024-02-26T02:30:51;2.60;99.90
52725;DHT22;38621;52.830;6.914;2024-02-26T02:33:17;2.60;99.90
52725;DHT22;38621;52.830;6.914;2024-02-26T02:35:43;2.60;99.90
52725;DHT22;38621;52.830;6.914;2024-02-26T02:38:08;2.60;99.90
52725;DHT22;38621;52.830;6.914;2024-02-26T02:40:34;2.70;99.90
52725;DHT22;38621;52.830;6.914;2024-02-26T02:43:00;2.90;99.90
52725;DHT22;38621;52.830;6.914;2024-02-26T02:45:30;3.00;99.90
52725;DHT22;38621;52.830;6.914;2024-02-26T02:47:56;2.60;99.90
52725;DHT22;38621;52.830;6.914;2024-02-26T02:50:22;2.60;99.90
52725;DHT22;38621;52.830;6.914;2024-02-26T02:52:47;3.20;99.90
52725;DHT22;38621;52.830;6.914;2024-02-26T02:55:15;2.60;99.90
52725;DHT22;38621;52.830;6.914;2024-02-26T02:57:41;2.60;99.90
52725;DHT22;38621;52.830;6.914;2024-02-26T03:00:11;2.60;99.90
52725;DHT22;38621;52.830;6.914;2024-02-26T03:02:37;2.60;99.90
52725;DHT22;38621;52.830;6.914;2024-02-26T03:05:04;2.60;99.90
52725;DHT22;38621;52.830;6.914;2024-02-26T03:07:29;2.60;99.90
52725;DHT22;38621;52.830;6.914;2024-02-26T03:09:55;2.60;99.90
52725;DHT22;38621;52.830;6.914;2024-02-26T03:12:21;2.60;99.90
52725;DHT22;38621;52.830;6.914;2024-02-26T03:14:47;2.60;99.90
52725;DHT22;38621;52.830;6.914;2024-02-26T03:17:13;2.60;99.90
52725;DHT22;38621;52.830;6.914;2024-02-26T03:19:38;2.60;99.90
52725;DHT22;38621;52.830;6.914;2024-02-26T03:22:04;2.60;99.90
52725;DHT22;38621;52.830;6.914;2024-02-26T03:24:30;2.60;99.90
52725;DHT22;38621;52.830;6.914;2024-02-26T03:26:56;2.60;99.90
52725;DHT22;38621;52.830;6.914;2024-02-26T03:29:22;2.60;99.90
52725;DHT22;38621;52.830;6.914;2024-02-26T03:31:47;2.60;99.90
52725;DHT22;38621;52.830;6.914;2024-02-26T03:34:13;3.00;99.90
52725;DHT22;38621;52.830;6.914;2024-02-26T03:36:42;2.60;99.90
52725;DHT22;38621;52.830;6.914;2024-02-26T03:39:08;2.60;99.90
52725;DHT22;38621;52.830;6.914;2024-02-26T03:41:34;2.60;99.90
52725;DHT22;38621;52.830;6.914;2024-02-26T03:44:01;2.60;99.90
52725;DHT22;38621;52.830;6.914;2024-02-26T03:46:26;3.60;99.90
52725;DHT22;38621;52.830;6.914;2024-02-26T03:48:52;2.70;99.90
52725;DHT22;38621;52.830;6.914;2024-02-26T03:51:18;3.10;99.90
52725;DHT22;38621;52.830;6.914;2024-02-26T03:53:44;2.80;99.90
52725;DHT22;38621;52.830;6.914;2024-02-26T03:56:12;2.80;99.90
52725;DHT22;38621;52.830;6.914;2024-02-26T03:58:38;2.90;99.90
52725;DHT22;38621;52.830;6.914;2024-02-26T04:01:06;2.90;99.90
52725;DHT22;38621;52.830;6.914;2024-02-26T04:03:32;3.40;99.90
52725;DHT22;38621;52.830;6.914;2024-02-26T04:05:58;3.00;99.90
52725;DHT22;38621;52.830;6.914;2024-02-26T04:08:23;3.00;99.90
52725;DHT22;38621;52.830;6.914;2024-02-26T04:10:49;3.10;99.90
52725;DHT22;38621;52.830;6.914;2024-02-26T04:13:15;3.10;99.90
52725;DHT22;38621;52.830;6.914;2024-02-26T04:15:40;3.10;99.90
52725;DHT22;38621;52.830;6.914;2024-02-26T04:18:06;3.20;99.90
52725;DHT22;38621;52.830;6.914;2024-02-26T04:20:32;3.20;99.90
52725;DHT22;38621;52.830;6.914;2024-02-26T04:22:57;3.20;99.90
52725;DHT22;38621;52.830;6.914;2024-02-26T04:25:23;3.20;99.90
52725;DHT22;38621;52.830;6.914;2024-02-26T04:27:49;3.20;99.90
52725;DHT22;38621;52.830;6.914;2024-02-26T04:30:15;3.30;99.90
52725;DHT22;38621;52.830;6.914;2024-02-26T04:32:40;3.30;99.90
52725;DHT22;38621;52.830;6.914;2024-02-26T04:35:06;3.30;99.90
52725;DHT22;38621;52.830;6.914;2024-02-26T04:37:32;3.20;99.90
52725;DHT22;38621;52.830;6.914;2024-02-26T04:39:58;3.30;99.90
52725;DHT22;38621;52.830;6.914;2024-02-26T04:42:24;3.30;99.90
52725;DHT22;38621;52.830;6.914;2024-02-26T04:44:50;3.30;99.90
52725;DHT22;38621;52.830;6.914;2024-02-26T04:47:16;3.80;99.90
52725;DHT22;38621;52.830;6.914;2024-02-26T04:49:41;3.30;99.90
52725;DHT22;38621;52.830;6.914;2024-02-26T04:52:07;3.30;99.90
52725;DHT22;38621;52.830;6.914;2024-02-26T04:54:33;3.30;99.90
52725;DHT22;38621;52.830;6.914;2024-02-26T04:56:59;3.60;99.90
52725;DHT22;38621;52.830;6.914;2024-02-26T04:59:24;3.40;99.90
52725;DHT22;38621;52.830;6.914;2024-02-26T05:01:50;3.40;99.90
52725;DHT22;38621;52.830;6.914;2024-02-26T05:04:18;3.40;99.90
52725;DHT22;38621;52.830;6.914;2024-02-26T05:06:43;3.40;99.90
52725;DHT22;38621;52.830;6.914;2024-02-26T05:09:09;3.40;99.90
52725;DHT22;38621;52.830;6.914;2024-02-26T05:11:35;3.40;99.90
52725;DHT22;38621;52.830;6.914;2024-02-26T05:14:00;3.40;99.90
52725;DHT22;38621;52.830;6.914;2024-02-26T05:16:26;3.70;99.90
52725;DHT22;38621;52.830;6.914;2024-02-26T05:18:53;3.40;99.90
52725;DHT22;38621;52.830;6.914;2024-02-26T05:21:18;3.40;99.90
52725;DHT22;38621;52.830;6.914;2024-02-26T05:23:44;3.60;99.90
52725;DHT22;38621;52.830;6.914;2024-02-26T05:26:11;3.60;99.90
52725;DHT22;38621;52.830;6.914;2024-02-26T05:28:36;3.40;99.90
52725;DHT22;38621;52.830;6.914;2024-02-26T05:31:05;3.40;99.90
52725;DHT22;38621;52.830;6.914;2024-02-26T05:33:31;3.40;99.90
52725;DHT22;38621;52.830;6.914;2024-02-26T05:35:56;3.30;99.90
52725;DHT22;38621;52.830;6.914;2024-02-26T05:38:22;3.30;99.90
52725;DHT22;38621;52.830;6.914;2024-02-26T05:40:48;3.30;99.90
52725;DHT22;38621;52.830;6.914;2024-02-26T05:43:14;3.30;99.90
52725;DHT22;38621;52.830;6.914;2024-02-26T05:45:42;3.30;99.90
52725;DHT22;38621;52.830;6.914;2024-02-26T05:48:08;3.30;99.90
52725;DHT22;38621;52.830;6.914;2024-02-26T05:50:33;3.50;99.90
52725;DHT22;38621;52.830;6.914;2024-02-26T05:52:59;3.60;99.90
52725;DHT22;38621;52.830;6.914;2024-02-26T05:55:24;3.40;99.90
52725;DHT22;38621;52.830;6.914;2024-02-26T05:57:51;3.30;99.90
52725;DHT22;38621;52.830;6.914;2024-02-26T06:00:17;3.20;99.90
52725;DHT22;38621;52.830;6.914;2024-02-26T06:02:43;3.20;99.90
52725;DHT22;38621;52.830;6.914;2024-02-26T06:05:08;3.30;99.90
52725;DHT22;38621;52.830;6.914;2024-02-26T06:07:34;3.20;99.90
52725;DHT22;38621;52.830;6.914;2024-02-26T06:10:01;3.20;99.90
52725;DHT22;38621;52.830;6.914;2024-02-26T06:12:26;3.30;99.90
52725;DHT22;38621;52.830;6.914;2024-02-26T06:14:54;3.30;99.90
52725;DHT22;38621;52.830;6.914;2024-02-26T06:17:19;3.30;99.90
52725;DHT22;38621;52.830;6.914;2024-02-26T06:19:45;3.30;99.90
52725;DHT22;38621;52.830;6.914;2024-02-26T06:22:11;3.30;99.90
52725;DHT22;38621;52.830;6.914;2024-02-26T06:24:37;3.40;99.90
52725;DHT22;38621;52.830;6.914;2024-02-26T06:27:03;3.40;99.90
52725;DHT22;38621;52.830;6.914;2024-02-26T06:29:28;3.40;99.90
52725;DHT22;38621;52.830;6.914;2024-02-26T06:31:54;3.40;99.90
52725;DHT22;38621;52.830;6.914;2024-02-26T06:34:21;3.50;99.90
52725;DHT22;38621;52.830;6.914;2024-02-26T06:36:46;3.40;99.90
52725;DHT22;38621;52.830;6.914;2024-02-26T06:39:12;3.40;99.90
52725;DHT22;38621;52.830;6.914;2024-02-26T06:41:38;3.40;99.90
52725;DHT22;38621;52.830;6.914;2024-02-26T06:44:05;3.40;99.90
52725;DHT22;38621;52.830;6.914;2024-02-26T06:46:31;3.40;99.90
52725;DHT22;38621;52.830;6.914;2024-02-26T06:48:57;3.40;99.90
52725;DHT22;38621;52.830;6.914;2024-02-26T06:51:22;4.60;99.90
52725;DHT22;38621;52.830;6.914;2024-02-26T06:53:49;3.40;99.90
52725;DHT22;38621;52.830;6.914;2024-02-26T06:56:15;3.40;99.90
52725;DHT22;38621;52.830;6.914;2024-02-26T06:58:40;3.40;99.90
52725;DHT22;38621;52.830;6.914;2024-02-26T07:01:06;3.40;99.90
52725;DHT22;38621;52.830;6.914;2024-02-26T07:03:34;3.70;99.90
52725;DHT22;38621;52.830;6.914;2024-02-26T07:05:59;3.40;99.90
52725;DHT22;38621;52.830;6.914;2024-02-26T07:08:25;3.50;99.90
52725;DHT22;38621;52.830;6.914;2024-02-26T07:10:51;3.50;99.90
52725;DHT22;38621;52.830;6.914;2024-02-26T07:13:17;3.50;99.90
52725;DHT22;38621;52.830;6.914;2024-02-26T07:15:43;3.50;99.90
52725;DHT22;38621;52.830;6.914;2024-02-26T07:18:08;3.70;99.90
52725;DHT22;38621;52.830;6.914;2024-02-26T07:20:35;3.60;99.90
52725;DHT22;38621;52.830;6.914;2024-02-26T07:23:01;3.60;99.90
52725;DHT22;38621;52.830;6.914;2024-02-26T07:25:27;3.60;99.90
52725;DHT22;38621;52.830;6.914;2024-02-26T07:27:52;4.40;99.90
52725;DHT22;38621;52.830;6.914;2024-02-26T07:30:18;3.90;99.90
52725;DHT22;38621;52.830;6.914;2024-02-26T07:32:44;3.90;99.90
52725;DHT22;38621;52.830;6.914;2024-02-26T07:35:10;3.80;99.90
52725;DHT22;38621;52.830;6.914;2024-02-26T07:37:36;3.70;99.90
52725;DHT22;38621;52.830;6.914;2024-02-26T07:40:01;3.80;99.90
52725;DHT22;38621;52.830;6.914;2024-02-26T07:42:28;3.70;99.90
52725;DHT22;38621;52.830;6.914;2024-02-26T07:44:54;3.70;99.90
52725;DHT22;38621;52.830;6.914;2024-02-26T07:47:20;3.70;99.90
52725;DHT22;38621;52.830;6.914;2024-02-26T07:49:46;3.70;99.90
52725;DHT22;38621;52.830;6.914;2024-02-26T07:52:12;3.70;99.90
52725;DHT22;38621;52.830;6.914;2024-02-26T07:54:37;4.20;99.90
52725;DHT22;38621;52.830;6.914;2024-02-26T07:57:03;3.80;99.90
52725;DHT22;38621;52.830;6.914;2024-02-26T07:59:31;3.80;99.90
52725;DHT22;38621;52.830;6.914;2024-02-26T08:01:57;4.10;99.90
52725;DHT22;38621;52.830;6.914;2024-02-26T08:04:22;3.80;99.90
52725;DHT22;38621;52.830;6.914;2024-02-26T08:06:48;3.80;99.90
52725;DHT22;38621;52.830;6.914;2024-02-26T08:09:14;3.90;99.90
52725;DHT22;38621;52.830;6.914;2024-02-26T08:11:39;3.90;99.90
52725;DHT22;38621;52.830;6.914;2024-02-26T08:14:05;3.90;99.90
52725;DHT22;38621;52.830;6.914;2024-02-26T08:16:31;4.00;99.90
52725;DHT22;38621;52.830;6.914;2024-02-26T08:18:56;4.00;99.90
52725;DHT22;38621;52.830;6.914;2024-02-26T08:21:22;4.60;99.90
52725;DHT22;38621;52.830;6.914;2024-02-26T08:23:48;4.00;99.90
52725;DHT22;38621;52.830;6.914;2024-02-26T08:26:13;4.00;99.90
52725;DHT22;38621;52.830;6.914;2024-02-26T08:28:39;4.10;99.90
52725;DHT22;38621;52.830;6.914;2024-02-26T08:31:05;4.40;99.90
52725;DHT22;38621;52.830;6.914;2024-02-26T08:33:31;4.50;99.90
52725;DHT22;38621;52.830;6.914;2024-02-26T08:35:56;4.10;99.90
52725;DHT22;38621;52.830;6.914;2024-02-26T08:38:22;4.20;99.90
52725;DHT22;38621;52.830;6.914;2024-02-26T08:40:48;4.70;99.90
52725;DHT22;38621;52.830;6.914;2024-02-26T08:43:14;4.20;99.90
52725;DHT22;38621;52.830;6.914;2024-02-26T08:45:40;4.30;99.90
52725;DHT22;38621;52.830;6.914;2024-02-26T08:48:06;4.20;99.90
52725;DHT22;38621;52.830;6.914;2024-02-26T08:50:33;4.20;99.90
52725;DHT22;38621;52.830;6.914;2024-02-26T08:52:59;4.20;99.90
52725;DHT22;38621;52.830;6.914;2024-02-26T08:55:26;4.30;99.90
52725;DHT22;38621;52.830;6.914;2024-02-26T08:57:52;4.30;99.90
52725;DHT22;38621;52.830;6.914;2024-02-26T09:00:18;4.30;99.90
52725;DHT22;38621;52.830;6.914;2024-02-26T09:02:49;4.30;99.90
52725;DHT22;38621;52.830;6.914;2024-02-26T09:05:15;4.30;99.90
52725;DHT22;38621;52.830;6.914;2024-02-26T09:07:41;4.30;99.90
52725;DHT22;38621;52.830;6.914;2024-02-26T09:10:07;4.30;99.90
52725;DHT22;38621;52.830;6.914;2024-02-26T09:12:36;4.30;99.90
52725;DHT22;38621;52.830;6.914;2024-02-26T09:15:03;4.80;99.90
52725;DHT22;38621;52.830;6.914;2024-02-26T09:17:29;4.30;99.90
52725;DHT22;38621;52.830;6.914;2024-02-26T09:19:55;4.30;99.90
52725;DHT22;38621;52.830;6.914;2024-02-26T09:22:20;4.40;99.90
52725;DHT22;38621;52.830;6.914;2024-02-26T09:24:46;4.30;99.90
52725;DHT22;38621;52.830;6.914;2024-02-26T09:27:12;4.30;99.90
52725;DHT22;38621;52.830;6.914;2024-02-26T09:29:37;4.30;99.90
52725;DHT22;38621;52.830;6.914;2024-02-26T09:32:03;4.30;99.90
52725;DHT22;38621;52.830;6.914;2024-02-26T09:34:29;4.30;99.90
52725;DHT22;38621;52.830;6.914;2024-02-26T09:36:55;4.30;99.90
52725;DHT22;38621;52.830;6.914;2024-02-26T09:39:20;4.30;99.90
52725;DHT22;38621;52.830;6.914;2024-02-26T09:41:50;4.40;99.90
52725;DHT22;38621;52.830;6.914;2024-02-26T09:44:20;4.50;99.90
52725;DHT22;38621;52.830;6.914;2024-02-26T09:46:48;4.40;99.90
52725;DHT22;38621;52.830;6.914;2024-02-26T09:49:17;4.60;99.90
52725;DHT22;38621;52.830;6.914;2024-02-26T09:51:43;4.40;99.90
52725;DHT22;38621;52.830;6.914;2024-02-26T09:54:10;4.40;99.90
52725;DHT22;38621;52.830;6.914;2024-02-26T09:56:39;4.50;99.90
52725;DHT22;38621;52.830;6.914;2024-02-26T09:59:17;4.90;99.90
52725;DHT22;38621;52.830;6.914;2024-02-26T10:01:44;4.50;99.90
52725;DHT22;38621;52.830;6.914;2024-02-26T10:04:12;4.50;99.90
52725;DHT22;38621;52.830;6.914;2024-02-26T10:06:38;4.60;99.90
52725;DHT22;38621;52.830;6.914;2024-02-26T10:09:05;4.60;99.90
52725;DHT22;38621;52.830;6.914;2024-02-26T10:11:35;5.10;99.90
52725;DHT22;38621;52.830;6.914;2024-02-26T10:14:03;4.80;99.90
52725;DHT22;38621;52.830;6.914;2024-02-26T10:16:29;4.70;99.90
52725;DHT22;38621;52.830;6.914;2024-02-26T10:18:55;4.80;99.90
52725;DHT22;38621;52.830;6.914;2024-02-26T10:21:21;4.90;99.90
52725;DHT22;38621;52.830;6.914;2024-02-26T10:23:48;4.90;99.90
52725;DHT22;38621;52.830;6.914;2024-02-26T10:26:14;4.90;99.90
52725;DHT22;38621;52.830;6.914;2024-02-26T10:28:43;5.30;99.90
52725;DHT22;38621;52.830;6.914;2024-02-26T10:31:09;5.30;99.90
52725;DHT22;38621;52.830;6.914;2024-02-26T10:33:38;5.50;99.90
52725;DHT22;38621;52.830;6.914;2024-02-26T10:36:05;5.00;99.90
52725;DHT22;38621;52.830;6.914;2024-02-26T10:38:36;5.00;99.90
52725;DHT22;38621;52.830;6.914;2024-02-26T10:41:06;5.00;99.90
52725;DHT22;38621;52.830;6.914;2024-02-26T10:43:33;5.10;99.90
52725;DHT22;38621;52.830;6.914;2024-02-26T10:45:59;5.30;99.90
52725;DHT22;38621;52.830;6.914;2024-02-26T10:48:25;5.10;99.90
52725;DHT22;38621;52.830;6.914;2024-02-26T10:50:51;5.60;99.90
52725;DHT22;38621;52.830;6.914;2024-02-26T10:53:20;5.20;99.90
52725;DHT22;38621;52.830;6.914;2024-02-26T10:55:57;5.30;99.90
52725;DHT22;38621;52.830;6.914;2024-02-26T10:58:23;5.50;99.90
52725;DHT22;38621;52.830;6.914;2024-02-26T11:00:51;5.40;99.90
52725;DHT22;38621;52.830;6.914;2024-02-26T11:03:18;5.40;99.90
52725;DHT22;38621;52.830;6.914;2024-02-26T11:05:49;5.50;99.90
52725;DHT22;38621;52.830;6.914;2024-02-26T11:08:17;5.40;99.90
52725;DHT22;38621;52.830;6.914;2024-02-26T11:10:43;5.50;99.90
52725;DHT22;38621;52.830;6.914;2024-02-26T11:13:14;5.50;99.90
52725;DHT22;38621;52.830;6.914;2024-02-26T11:15:40;5.50;99.90
52725;DHT22;38621;52.830;6.914;2024-02-26T11:18:07;5.50;99.90
52725;DHT22;38621;52.830;6.914;2024-02-26T11:20:34;5.50;99.90
52725;DHT22;38621;52.830;6.914;2024-02-26T11:23:04;5.70;99.90
52725;DHT22;38621;52.830;6.914;2024-02-26T11:25:29;5.60;99.90
52725;DHT22;38621;52.830;6.914;2024-02-26T11:27:59;5.70;99.90
52725;DHT22;38621;52.830;6.914;2024-02-26T11:30:30;6.10;99.90
52725;DHT22;38621;52.830;6.914;2024-02-26T11:32:55;5.90;99.90
52725;DHT22;38621;52.830;6.914;2024-02-26T11:35:22;6.10;99.90
52725;DHT22;38621;52.830;6.914;2024-02-26T11:37:53;6.10;99.90
52725;DHT22;38621;52.830;6.914;2024-02-26T11:40:18;6.30;99.90
52725;DHT22;38621;52.830;6.914;2024-02-26T11:42:45;6.30;99.90
52725;DHT22;38621;52.830;6.914;2024-02-26T11:50:39;6.50;99.90
52725;DHT22;38621;52.830;6.914;2024-02-26T11:53:32;6.60;99.90
52725;DHT22;38621;52.830;6.914;2024-02-26T11:56:20;6.60;99.90
52725;DHT22;38621;52.830;6.914;2024-02-26T11:58:47;6.60;99.90
52725;DHT22;38621;52.830;6.914;2024-02-26T12:01:47;6.70;99.90
52725;DHT22;38621;52.830;6.914;2024-02-26T12:07:01;6.70;99.90
52725;DHT22;38621;52.830;6.914;2024-02-26T12:09:45;6.70;99.90
52725;DHT22;38621;52.830;6.914;2024-02-26T12:12:18;6.60;99.90
52725;DHT22;38621;52.830;6.914;2024-02-26T12:14:56;6.60;99.90
52725;DHT22;38621;52.830;6.914;2024-02-26T12:17:25;6.50;99.90
52725;DHT22;38621;52.830;6.914;2024-02-26T12:19:51;6.50;99.90
52725;DHT22;38621;52.830;6.914;2024-02-26T12:22:19;6.50;99.90
52725;DHT22;38621;52.830;6.914;2024-02-26T12:24:45;6.50;99.90
52725;DHT22;38621;52.830;6.914;2024-02-26T12:27:11;6.50;99.90
52725;DHT22;38621;52.830;6.914;2024-02-26T12:29:37;6.50;99.90
52725;DHT22;38621;52.830;6.914;2024-02-26T12:32:04;6.50;99.90
52725;DHT22;38621;52.830;6.914;2024-02-26T12:34:31;6.50;99.90
52725;DHT22;38621;52.830;6.914;2024-02-26T12:36:57;6.40;99.90
52725;DHT22;38621;52.830;6.914;2024-02-26T12:39:23;6.50;99.90
52725;DHT22;38621;52.830;6.914;2024-02-26T12:41:49;6.40;99.90
52725;DHT22;38621;52.830;6.914;2024-02-26T12:44:16;6.40;99.90
52725;DHT22;38621;52.830;6.914;2024-02-26T12:46:42;6.30;99.90
52725;DHT22;38621;52.830;6.914;2024-02-26T12:49:08;6.40;99.90
52725;DHT22;38621;52.830;6.914;2024-02-26T12:51:34;6.30;99.90
52725;DHT22;38621;52.830;6.914;2024-02-26T12:54:00;6.20;99.90
52725;DHT22;38621;52.830;6.914;2024-02-26T12:56:27;6.20;99.90
52725;DHT22;38621;52.830;6.914;2024-02-26T12:58:53;6.20;99.90
52725;DHT22;38621;52.830;6.914;2024-02-26T13:01:23;6.10;99.90
52725;DHT22;38621;52.830;6.914;2024-02-26T13:03:50;6.10;99.90
52725;DHT22;38621;52.830;6.914;2024-02-26T13:06:17;6.10;99.90
52725;DHT22;38621;52.830;6.914;2024-02-26T13:08:44;6.00;99.90
52725;DHT22;38621;52.830;6.914;2024-02-26T13:11:10;6.30;99.90
52725;DHT22;38621;52.830;6.914;2024-02-26T13:13:36;6.00;99.90
52725;DHT22;38621;52.830;6.914;2024-02-26T13:16:07;6.00;99.90
52725;DHT22;38621;52.830;6.914;2024-02-26T13:18:34;6.00;99.90
52725;DHT22;38621;52.830;6.914;2024-02-26T13:21:16;6.20;99.90
52725;DHT22;38621;52.830;6.914;2024-02-26T13:23:48;6.00;99.90
52725;DHT22;38621;52.830;6.914;2024-02-26T13:26:14;6.00;99.90
52725;DHT22;38621;52.830;6.914;2024-02-26T13:28:40;6.00;99.90
52725;DHT22;38621;52.830;6.914;2024-02-26T13:31:06;6.00;99.90
52725;DHT22;38621;52.830;6.914;2024-02-26T13:33:33;6.00;99.90
52725;DHT22;38621;52.830;6.914;2024-02-26T13:35:59;6.00;99.90
52725;DHT22;38621;52.830;6.914;2024-02-26T13:38:26;6.10;99.90
52725;DHT22;38621;52.830;6.914;2024-02-26T13:40:52;6.00;99.90
52725;DHT22;38621;52.830;6.914;2024-02-26T13:43:18;6.10;99.90
52725;DHT22;38621;52.830;6.914;2024-02-26T13:45:45;6.10;99.90
52725;DHT22;38621;52.830;6.914;2024-02-26T13:48:11;6.00;99.90
52725;DHT22;38621;52.830;6.914;2024-02-26T13:50:42;6.10;99.90
52725;DHT22;38621;52.830;6.914;2024-02-26T13:53:11;6.10;99.90
52725;DHT22;38621;52.830;6.914;2024-02-26T13:55:37;6.00;99.90
52725;DHT22;38621;52.830;6.914;2024-02-26T13:58:03;6.10;99.90
52725;DHT22;38621;52.830;6.914;2024-02-26T14:00:30;6.10;99.90
52725;DHT22;38621;52.830;6.914;2024-02-26T14:02:59;6.10;99.90
52725;DHT22;38621;52.830;6.914;2024-02-26T14:05:25;6.10;99.90
52725;DHT22;38621;52.830;6.914;2024-02-26T14:07:51;6.10;99.90
52725;DHT22;38621;52.830;6.914;2024-02-26T14:10:17;6.10;99.90
52725;DHT22;38621;52.830;6.914;2024-02-26T14:12:43;6.30;99.90
52725;DHT22;38621;52.830;6.914;2024-02-26T14:15:10;6.10;99.90
52725;DHT22;38621;52.830;6.914;2024-02-26T14:17:35;6.10;99.90
52725;DHT22;38621;52.830;6.914;2024-02-26T14:20:02;6.00;99.90
52725;DHT22;38621;52.830;6.914;2024-02-26T14:22:28;6.00;99.90
52725;DHT22;38621;52.830;6.914;2024-02-26T14:24:56;6.00;99.90
52725;DHT22;38621;52.830;6.914;2024-02-26T14:27:22;6.00;99.90
52725;DHT22;38621;52.830;6.914;2024-02-26T14:29:48;6.00;99.90
52725;DHT22;38621;52.830;6.914;2024-02-26T14:32:14;6.20;99.90
52725;DHT22;38621;52.830;6.914;2024-02-26T14:34:40;5.90;99.90
52725;DHT22;38621;52.830;6.914;2024-02-26T14:37:06;5.90;99.90
52725;DHT22;38621;52.830;6.914;2024-02-26T14:39:32;5.90;99.90
52725;DHT22;38621;52.830;6.914;2024-02-26T14:41:59;5.80;99.90
52725;DHT22;38621;52.830;6.914;2024-02-26T14:44:25;5.90;99.90
52725;DHT22;38621;52.830;6.914;2024-02-26T14:46:51;5.80;99.90
52725;DHT22;38621;52.830;6.914;2024-02-26T14:49:17;5.80;99.90
52725;DHT22;38621;52.830;6.914;2024-02-26T14:51:43;5.80;99.90
52725;DHT22;38621;52.830;6.914;2024-02-26T14:54:11;5.80;99.90
52725;DHT22;38621;52.830;6.914;2024-02-26T14:56:37;5.90;99.90
52725;DHT22;38621;52.830;6.914;2024-02-26T14:59:03;5.70;99.90
52725;DHT22;38621;52.830;6.914;2024-02-26T15:01:28;5.70;99.90
52725;DHT22;38621;52.830;6.914;2024-02-26T15:03:54;5.60;99.90
52725;DHT22;38621;52.830;6.914;2024-02-26T15:06:20;5.60;99.90
52725;DHT22;38621;52.830;6.914;2024-02-26T15:08:46;5.60;99.90
52725;DHT22;38621;52.830;6.914;2024-02-26T15:11:12;5.60;99.90
52725;DHT22;38621;52.830;6.914;2024-02-26T15:13:38;5.60;99.90
52725;DHT22;38621;52.830;6.914;2024-02-26T15:16:04;5.70;99.90
52725;DHT22;38621;52.830;6.914;2024-02-26T15:18:29;5.60;99.90
52725;DHT22;38621;52.830;6.914;2024-02-26T15:20:55;5.50;99.90
52725;DHT22;38621;52.830;6.914;2024-02-26T15:23:21;5.60;99.90
52725;DHT22;38621;52.830;6.914;2024-02-26T15:25:46;5.50;99.90
52725;DHT22;38621;52.830;6.914;2024-02-26T15:28:12;5.50;99.90
52725;DHT22;38621;52.830;6.914;2024-02-26T15:30:40;5.50;99.90
52725;DHT22;38621;52.830;6.914;2024-02-26T15:33:06;5.50;99.90
52725;DHT22;38621;52.830;6.914;2024-02-26T15:35:32;5.90;99.90
52725;DHT22;38621;52.830;6.914;2024-02-26T15:37:57;5.40;99.90
52725;DHT22;38621;52.830;6.914;2024-02-26T15:40:24;5.40;99.90
52725;DHT22;38621;52.830;6.914;2024-02-26T15:42:49;5.40;99.90
52725;DHT22;38621;52.830;6.914;2024-02-26T15:45:15;5.40;99.90
52725;DHT22;38621;52.830;6.914;2024-02-26T15:47:42;5.30;99.90
52725;DHT22;38621;52.830;6.914;2024-02-26T15:50:08;5.30;99.90